Capt. C.j. — WDG9929 — position and weather

sailwx.info

Track history (hours):
 
Tides and Currents Weather Stations Pressure Air Temp Water Temp Dewpoint Dewpoint Depression Visibility Wind Speed Wind Dir Waves Ship Positions

Capt. C.j.

Owner: Daigle Towing Service LLC., Belle Chasse, LA. More information available from US FCC via Universal Licensing System and Coast Guard Vessel Documentation Center.

Last reported at 2017-Oct-24 11:35 UTC. Time now 2017-Nov-22 11:00 UTC.
Position N 29°57' W 090°18'.
Warning: this ship's position is 28 days out of date.

Length 21 m.

Type: Fishing. MMSI: 367592640.

Date/timePositionNaut miles runAvg speedWind from/ knotsBaromVisibWave heightAir tempDewpointWater temp
2017-Oct-24 11:35N 29°57' W 090°18'  
2017-Oct-17 19:33N 29°33' W 090°25'1 5.3
2017-Oct-17 19:22N 29°33' W 090°26'2 5.4
2017-Oct-17 19:00N 29°34' W 090°28'3 5.4
2017-Oct-17 18:30N 29°34' W 090°31'3 5.2
2017-Oct-17 18:00N 29°34' W 090°34'2 4.4
2017-Oct-17 17:30N 29°35' W 090°37'2 4.3
2017-Oct-17 17:00N 29°35' W 090°39'2 4.4
2017-Oct-17 16:30N 29°36' W 090°41'1 2.8
2017-Oct-17 16:00N 29°36' W 090°43'2 4.4
2017-Oct-17 15:30N 29°34' W 090°43'2 4.4
2017-Oct-17 15:00N 29°33' W 090°46'2 4.8
2017-Oct-17 14:30N 29°32' W 090°48'3 5.3
2017-Oct-17 13:59N 29°32' W 090°51'3 5.1
2017-Oct-17 13:25N 29°33' W 090°55'59 1.7
2017-Oct-16 02:49N 29°50' W 091°59'2 5.6
2017-Oct-16 02:30N 29°49' W 092°01'3 5.3
2017-Oct-16 02:00N 29°49' W 092°04'2 4.9
2017-Oct-16 01:30N 29°48' W 092°06'2 4.3
2017-Oct-16 01:00N 29°47' W 092°09'2 4.3
2017-Oct-16 00:30N 29°47' W 092°11'2 3.9
2017-Oct-16 00:00N 29°48' W 092°13'0 0.4
2017-Oct-15 23:30N 29°48' W 092°14'2 3.8
2017-Oct-15 23:00N 29°48' W 092°16'2 4.6
2017-Oct-15 22:29N 29°50' W 092°18'2 3.6
2017-Oct-15 21:57N 29°51' W 092°20'40 3.9
2017-Oct-15 11:38N 29°56' W 093°06'1 2.7
2017-Oct-15 11:15N 29°56' W 093°07'1 2.5
2017-Oct-15 11:00N 29°56' W 093°07'1 1.7
2017-Oct-15 10:30N 29°56' W 093°08'2 4.0
2017-Oct-15 10:00N 29°57' W 093°10'2 4.5
2017-Oct-15 09:30N 29°59' W 093°12'2 4.4
2017-Oct-15 09:00N 30°01' W 093°14'2 3.4
2017-Oct-15 08:30N 30°02' W 093°15'1 2.9
2017-Oct-15 08:00N 30°03' W 093°16'2 4.0
2017-Oct-15 07:30N 30°05' W 093°17'1 1.8
2017-Oct-15 07:00N 30°05' W 093°18'1 1.7
2017-Oct-15 06:30N 30°06' W 093°18'2 4.1
2017-Oct-15 06:00N 30°05' W 093°20'2 3.9
2017-Oct-15 05:30N 30°04' W 093°22'3 5.1
2017-Oct-15 05:00N 30°04' W 093°25'3 5.1
2017-Oct-15 04:30N 30°04' W 093°28'3 5.2
2017-Oct-15 04:00N 30°04' W 093°31'3 5.2
2017-Oct-15 03:30N 30°04' W 093°34'3 5.0
2017-Oct-15 03:00N 30°04' W 093°37'2 4.5
2017-Oct-15 02:30N 30°04' W 093°39'2 3.7
2017-Oct-15 02:00N 30°04' W 093°42'4 0.3
2017-Oct-14 14:17N 30°07' W 093°42'0 0.2
2017-Oct-14 13:59N 30°07' W 093°42'0 0.2
2017-Oct-14 13:29N 30°07' W 093°42'0 0.0
2017-Oct-14 12:58N 30°07' W 093°42'0 0.0
2017-Oct-14 12:25N 30°07' W 093°42'  
Track history (hours):
 
Tides and Currents Weather Stations Pressure Air Temp Water Temp Dewpoint Dewpoint Depression Visibility Wind Speed Wind Dir Waves Ship Positions

Capt. C.j.

Owner: Daigle Towing Service LLC., Belle Chasse, LA. More information available from US FCC via Universal Licensing System and Coast Guard Vessel Documentation Center.

Last reported at 2017-Oct-24 11:35 UTC. Time now 2017-Nov-22 11:00 UTC.
Position N 29°57' W 090°18'.
Warning: this ship's position is 28 days out of date.

Length 21 m.

Type: Fishing. MMSI: 367592640.

Date/timePositionNaut miles runAvg speedWind from/ knotsBaromVisibWave heightAir tempDewpointWater temp
2017-Oct-24 11:35N 29°57' W 090°18'  
2017-Oct-17 19:33N 29°33' W 090°25'1 5.3
2017-Oct-17 19:22N 29°33' W 090°26'2 5.4
2017-Oct-17 19:00N 29°34' W 090°28'3 5.4
2017-Oct-17 18:30N 29°34' W 090°31'3 5.2
2017-Oct-17 18:00N 29°34' W 090°34'2 4.4
2017-Oct-17 17:30N 29°35' W 090°37'2 4.3
2017-Oct-17 17:00N 29°35' W 090°39'2 4.4
2017-Oct-17 16:30N 29°36' W 090°41'1 2.8
2017-Oct-17 16:00N 29°36' W 090°43'2 4.4
2017-Oct-17 15:30N 29°34' W 090°43'2 4.4
2017-Oct-17 15:00N 29°33' W 090°46'2 4.8
2017-Oct-17 14:30N 29°32' W 090°48'3 5.3
2017-Oct-17 13:59N 29°32' W 090°51'3 5.1
2017-Oct-17 13:25N 29°33' W 090°55'59 1.7
2017-Oct-16 02:49N 29°50' W 091°59'2 5.6
2017-Oct-16 02:30N 29°49' W 092°01'3 5.3
2017-Oct-16 02:00N 29°49' W 092°04'2 4.9
2017-Oct-16 01:30N 29°48' W 092°06'2 4.3
2017-Oct-16 01:00N 29°47' W 092°09'2 4.3
2017-Oct-16 00:30N 29°47' W 092°11'2 3.9
2017-Oct-16 00:00N 29°48' W 092°13'0 0.4
2017-Oct-15 23:30N 29°48' W 092°14'2 3.8
2017-Oct-15 23:00N 29°48' W 092°16'2 4.6
2017-Oct-15 22:29N 29°50' W 092°18'2 3.6
2017-Oct-15 21:57N 29°51' W 092°20'40 3.9
2017-Oct-15 11:38N 29°56' W 093°06'1 2.7
2017-Oct-15 11:15N 29°56' W 093°07'1 2.5
2017-Oct-15 11:00N 29°56' W 093°07'1 1.7
2017-Oct-15 10:30N 29°56' W 093°08'2 4.0
2017-Oct-15 10:00N 29°57' W 093°10'2 4.5
2017-Oct-15 09:30N 29°59' W 093°12'2 4.4
2017-Oct-15 09:00N 30°01' W 093°14'2 3.4
2017-Oct-15 08:30N 30°02' W 093°15'1 2.9
2017-Oct-15 08:00N 30°03' W 093°16'2 4.0
2017-Oct-15 07:30N 30°05' W 093°17'1 1.8
2017-Oct-15 07:00N 30°05' W 093°18'1 1.7
2017-Oct-15 06:30N 30°06' W 093°18'2 4.1
2017-Oct-15 06:00N 30°05' W 093°20'2 3.9
2017-Oct-15 05:30N 30°04' W 093°22'3 5.1
2017-Oct-15 05:00N 30°04' W 093°25'3 5.1
2017-Oct-15 04:30N 30°04' W 093°28'3 5.2
2017-Oct-15 04:00N 30°04' W 093°31'3 5.2
2017-Oct-15 03:30N 30°04' W 093°34'3 5.0
2017-Oct-15 03:00N 30°04' W 093°37'2 4.5
2017-Oct-15 02:30N 30°04' W 093°39'2 3.7
2017-Oct-15 02:00N 30°04' W 093°42'4 0.3
2017-Oct-14 14:17N 30°07' W 093°42'0 0.2
2017-Oct-14 13:59N 30°07' W 093°42'0 0.2
2017-Oct-14 13:29N 30°07' W 093°42'0 0.0
2017-Oct-14 12:58N 30°07' W 093°42'0 0.0
2017-Oct-14 12:25N 30°07' W 093°42'  

Dump ship's entire track history